createdAt,value
2023-03-21T00:02:55.372Z,18.70
2023-03-21T00:09:00.254Z,17.20
2023-03-21T00:15:05.147Z,17.90
2023-03-21T00:21:39.234Z,16.70
2023-03-21T00:27:50.021Z,16.00
2023-03-21T00:33:51.395Z,16.30
2023-03-21T00:39:53.535Z,16.60
2023-03-21T00:45:57.732Z,16.80
2023-03-21T00:52:14.733Z,17.70
2023-03-21T00:58:18.617Z,17.20
2023-03-21T01:04:20.576Z,18.60
2023-03-21T01:10:22.893Z,16.80
2023-03-21T01:16:24.781Z,17.40
2023-03-21T01:22:27.307Z,17.30
2023-03-21T01:28:29.670Z,17.40
2023-03-21T01:34:31.628Z,18.30
2023-03-21T01:40:33.301Z,18.10
2023-03-21T01:47:12.132Z,18.70
2023-03-21T01:53:22.074Z,18.50
2023-03-21T01:59:43.515Z,16.90
2023-03-21T02:06:29.534Z,17.70
2023-03-21T02:12:32.686Z,17.40
2023-03-21T02:18:45.408Z,19.20
2023-03-21T02:25:48.832Z,19.20
2023-03-21T02:32:36.646Z,18.30
2023-03-21T02:39:00.615Z,17.90
2023-03-21T02:45:19.074Z,18.00
2023-03-21T02:51:27.151Z,18.10
2023-03-21T02:57:40.074Z,19.20
2023-03-21T03:03:45.152Z,20.30
2023-03-21T03:10:14.662Z,20.20
2023-03-21T03:16:28.069Z,20.60
2023-03-21T03:22:43.842Z,20.60
2023-03-21T03:28:48.719Z,20.70
2023-03-21T03:41:19.323Z,22.00
2023-03-21T03:47:57.196Z,22.50
2023-03-21T03:54:05.994Z,26.00
2023-03-21T04:00:12.426Z,27.00
2023-03-21T04:06:21.380Z,23.90
2023-03-21T04:12:24.941Z,26.80
2023-03-21T04:18:58.601Z,25.90
2023-03-21T04:25:04.635Z,25.00
2023-03-21T04:31:24.362Z,24.90
2023-03-21T04:37:27.846Z,25.10
2023-03-21T04:43:30.294Z,22.70
2023-03-21T04:49:35.657Z,21.10
2023-03-21T04:55:40.248Z,22.70
2023-03-21T05:01:43.269Z,21.40
2023-03-21T05:07:44.955Z,20.10
2023-03-21T05:13:51.882Z,20.90
2023-03-21T05:19:59.729Z,19.20
2023-03-21T05:26:01.745Z,18.40
2023-03-21T05:32:26.125Z,16.60
2023-03-21T05:38:27.791Z,14.90
2023-03-21T05:44:29.932Z,15.00
2023-03-21T05:50:32.709Z,12.40
2023-03-21T05:56:42.243Z,12.70
2023-03-21T06:02:47.025Z,12.40
2023-03-21T06:09:07.022Z,11.40
2023-03-21T06:15:09.272Z,10.80
2023-03-21T06:21:20.038Z,10.20
2023-03-21T06:27:23.266Z,9.80
2023-03-21T06:33:27.675Z,9.40
2023-03-21T06:39:30.624Z,10.30
2023-03-21T06:45:32.040Z,10.00
2023-03-21T06:51:34.176Z,9.10
2023-03-21T06:57:45.508Z,8.30
2023-03-21T07:03:47.679Z,7.70
2023-03-21T07:09:49.745Z,8.40
2023-03-21T07:15:52.958Z,9.20
2023-03-21T07:21:54.769Z,8.10
2023-03-21T07:27:56.280Z,8.00
2023-03-21T07:33:57.816Z,6.80
2023-03-21T07:39:59.674Z,6.50
2023-03-21T07:46:01.555Z,6.20
2023-03-21T07:52:04.885Z,6.10
2023-03-21T07:58:06.561Z,6.00
2023-03-21T08:04:08.045Z,6.00
2023-03-21T08:10:11.215Z,6.40
2023-03-21T08:16:12.723Z,5.90
2023-03-21T08:22:14.212Z,6.20
2023-03-21T08:28:15.719Z,6.50
2023-03-21T08:34:17.406Z,7.00
2023-03-21T08:40:20.259Z,6.20
2023-03-21T08:46:21.782Z,6.30
2023-03-21T08:52:23.214Z,5.40
2023-03-21T08:58:25.009Z,5.20
2023-03-21T09:04:26.885Z,6.60
2023-03-21T09:10:29.053Z,6.60
2023-03-21T09:16:30.988Z,7.20
2023-03-21T09:22:33.056Z,7.30
2023-03-21T09:28:36.859Z,8.20
2023-03-21T09:34:40.742Z,8.50
2023-03-21T09:41:12.574Z,8.80
2023-03-21T09:47:28.412Z,9.70
2023-03-21T09:53:35.333Z,10.70
2023-03-21T09:59:39.555Z,13.10
2023-03-21T10:05:43.959Z,13.60
2023-03-21T10:11:49.726Z,12.40
2023-03-21T10:17:56.323Z,12.70
2023-03-21T10:23:59.864Z,14.50
2023-03-21T10:30:05.306Z,13.90
2023-03-21T10:36:29.461Z,12.60
2023-03-21T10:42:33.228Z,14.60
2023-03-21T10:48:37.194Z,14.10
2023-03-21T10:54:38.804Z,13.80
2023-03-21T11:00:41.122Z,13.60
2023-03-21T11:06:46.226Z,13.90
2023-03-21T11:12:48.129Z,13.60
2023-03-21T11:18:51.369Z,13.50
2023-03-21T11:24:58.348Z,14.10
2023-03-21T11:31:02.125Z,14.00
2023-03-21T11:37:03.734Z,13.80
2023-03-21T11:43:17.476Z,14.50
2023-03-21T11:49:19.963Z,14.70
2023-03-21T11:55:37.039Z,14.30
2023-03-21T12:02:03.796Z,16.70
2023-03-21T12:14:39.277Z,15.80
2023-03-21T12:20:54.506Z,17.50
2023-03-21T12:27:13.777Z,18.10
2023-03-21T12:33:47.988Z,19.30
2023-03-21T12:39:50.039Z,20.60
2023-03-21T12:45:57.256Z,19.20
2023-03-21T12:52:23.777Z,19.50
2023-03-21T12:58:30.798Z,19.60
2023-03-21T13:04:42.718Z,17.90
2023-03-21T13:10:45.583Z,17.90
2023-03-21T13:16:55.241Z,18.50
2023-03-21T13:22:57.086Z,20.10
2023-03-21T13:29:00.635Z,19.80
2023-03-21T13:35:14.856Z,20.10
2023-03-21T13:41:40.062Z,21.60
2023-03-21T13:47:54.477Z,20.90
2023-03-21T13:54:01.430Z,20.50
2023-03-21T14:00:25.546Z,19.60
2023-03-21T14:06:39.221Z,19.30
2023-03-21T14:12:42.264Z,21.40
2023-03-21T14:18:54.973Z,20.90
2023-03-21T14:24:59.793Z,19.70
2023-03-21T14:31:01.954Z,21.40
2023-03-21T14:37:07.190Z,22.10
2023-03-21T14:43:10.964Z,21.50
2023-03-21T14:49:25.631Z,22.80
2023-03-21T14:55:27.185Z,23.40
2023-03-21T15:01:31.850Z,20.40
2023-03-21T15:07:34.278Z,19.30
2023-03-21T15:13:40.047Z,19.70
2023-03-21T15:19:43.157Z,21.30
2023-03-21T15:25:44.972Z,22.80
2023-03-21T15:31:47.807Z,25.00
2023-03-21T15:37:55.042Z,23.10
2023-03-21T15:44:08.696Z,21.80
2023-03-21T15:50:24.483Z,20.10
2023-03-21T15:56:34.229Z,21.00
2023-03-21T16:02:36.008Z,22.30
2023-03-21T16:08:42.227Z,22.80
2023-03-21T16:14:43.760Z,24.00
2023-03-21T16:20:46.458Z,23.30
2023-03-21T16:26:51.475Z,24.70
2023-03-21T16:32:53.449Z,24.00
2023-03-21T16:38:55.502Z,22.40
2023-03-21T16:44:57.105Z,23.10
2023-03-21T16:51:00.017Z,23.80
2023-03-21T16:57:03.838Z,22.70
2023-03-21T17:03:13.665Z,24.40
2023-03-21T17:09:18.911Z,23.00
2023-03-21T17:15:21.122Z,23.10
2023-03-21T17:21:26.061Z,25.00
2023-03-21T17:27:27.913Z,25.30
2023-03-21T17:33:30.275Z,26.10
2023-03-21T17:39:32.439Z,25.00
2023-03-21T17:45:33.925Z,23.90
2023-03-21T17:51:36.046Z,22.70
2023-03-21T17:57:38.011Z,23.60
2023-03-21T18:03:40.138Z,24.10
2023-03-21T18:09:41.775Z,23.50
2023-03-21T18:15:45.049Z,22.80
2023-03-21T18:21:47.395Z,23.70
2023-03-21T18:28:09.478Z,18.40
2023-03-21T18:34:10.652Z,16.90
2023-03-21T18:40:13.276Z,20.90
2023-03-21T18:46:15.724Z,18.70
2023-03-21T18:52:17.541Z,23.60
2023-03-21T18:58:19.370Z,21.60
2023-03-21T19:04:28.747Z,20.10
2023-03-21T19:10:31.602Z,21.50
2023-03-21T19:16:50.724Z,20.20
2023-03-21T19:22:55.736Z,22.70
2023-03-21T19:28:57.286Z,22.60
2023-03-21T19:34:58.808Z,22.00
2023-03-21T19:41:01.239Z,24.70
2023-03-21T19:47:04.150Z,22.50
2023-03-21T19:53:06.419Z,21.80
2023-03-21T19:59:08.552Z,21.10
2023-03-21T20:05:11.343Z,22.20
2023-03-21T20:11:14.670Z,22.10
2023-03-21T20:17:18.830Z,23.00
2023-03-21T20:23:20.613Z,22.60
2023-03-21T20:30:08.177Z,23.80
2023-03-21T20:36:29.498Z,22.20
2023-03-21T20:42:07.061Z,23.70
2023-03-21T20:48:08.700Z,23.80
2023-03-21T20:54:10.644Z,25.70
2023-03-21T21:00:16.265Z,25.10
2023-03-21T21:06:21.768Z,29.70
2023-03-21T21:12:27.131Z,24.20
2023-03-21T21:18:29.652Z,25.60
2023-03-21T21:24:31.423Z,26.80
2023-03-21T21:30:37.360Z,26.00
2023-03-21T21:36:46.528Z,31.00
2023-03-21T21:42:48.852Z,30.50
2023-03-21T21:48:50.400Z,37.00
2023-03-21T21:54:51.870Z,31.90
2023-03-21T22:00:58.298Z,35.50
2023-03-21T22:07:01.696Z,29.50
2023-03-21T22:13:06.334Z,33.70
2023-03-21T22:19:07.788Z,31.20
2023-03-21T22:25:12.306Z,31.20
2023-03-21T22:31:15.594Z,31.80
2023-03-21T22:37:17.078Z,31.50
2023-03-21T22:43:18.622Z,34.00
2023-03-21T22:49:20.062Z,31.80
2023-03-21T22:55:21.577Z,33.80
2023-03-21T23:01:23.145Z,32.20
2023-03-21T23:07:24.631Z,33.90
2023-03-21T23:13:27.360Z,31.70
2023-03-21T23:19:29.238Z,31.00
2023-03-21T23:25:32.983Z,34.60
2023-03-21T23:31:35.135Z,37.90
2023-03-21T23:37:36.781Z,35.30
2023-03-21T23:43:38.426Z,31.90
2023-03-21T23:49:40.173Z,32.90
2023-03-21T23:55:42.166Z,33.50
